Francisco Marquez

Jefe de ojeadores - Cruz Azul
16 Dic 2027
Jueves
Continuar

Personalidad

Adaptabilidad (5) Ambición (20) Controversia (9) Lealtad (8) Presión (15) Profesionalismo (18) Deportividad (13) Temperamento (11)

Perfil

Estilo de dirección Democrático
Licencia Nacional A
Determinación 11
Gestión de personas 12
Motivación 6
Disciplina 10
Satisfacción laboral
98%
Fatiga
0%
Cargo Jefe de ojeadores
Salario 34.3K p/s
Contrato 14.03.2029

Rendimiento

Comportamiento Bueno
Efectividad del entrenamiento
53%
Desarrollo de jugadores
60%
Prevención de lesiones
35%
Implementación táctica
70%

Eventos recientes

Asistió a una reunión de captación ahora
Recomendó un objetivo de fichaje ahora
Recomendó un objetivo de fichaje ahora
Recomendó un objetivo de fichaje ahora
Recomendó un objetivo de fichaje ahora
Recomendó un objetivo de fichaje ahora
Recomendó un objetivo de fichaje ahora
Recomendó un objetivo de fichaje ahora

Actualmente siguiendo

205
Jugador Club Estado Habilidad Confianza Observado Última observación Último voto
Caleb Yirenkyi Coventry City Activo 142 / 147 40% 10 14.12.2027 -
David Valencia Alianza Petrolera Activo 128 / 132 40% 4 14.12.2027 -
Josh Nichols Tranmere Rovers Activo 120 / 132 40% 2 14.12.2027 -
Hervin Goyes Deportivo Pasto Activo 107 / 103 40% 8 12.12.2027 -
Felipe Faúndez O'Higgins Activo 101 / 100 40% 8 12.12.2027 -
Nicolas Sport Recife Activo 106 / 104 40% 1 12.12.2027 -
Jorge Salinas Racing Santander Activo 129 / 128 40% 12 10.12.2027 -
Alejandro Almaraz Nueva Chicago Activo 110 / 113 40% 8 10.12.2027 -
Agustín Obregón River Plate Activo 114 / 126 40% 3 08.12.2027 -
Joel Ezra Enyimba Activo 96 / 111 40% 3 08.12.2027 -
Ronan Kpakio Cardiff City Activo 120 / 133 40% 2 08.12.2027 -
Marc Bernal Real Sociedad Activo 147 / 149 40% 10 06.12.2027 -
Dmitry Pestryakov Dinamo Moscow Activo 117 / 114 40% 2 06.12.2027 -
Izan Merino Málaga Activo 131 / 124 40% 5 05.12.2027 -
Celías Ingenthron Vélez Activo 115 / 129 40% 7 04.12.2027 -
Mikkel Hope Haugesund Activo 101 / 97 40% 9 03.12.2027 -
Olaniyi Saheed Kwara United Activo 97 / 107 40% 6 02.12.2027 -
Mads Bomholt Stabaek Activo 108 / 112 40% 7 30.11.2027 -
Héctor Fort Real Sociedad Activo 140 / 140 40% 2 30.11.2027 -
Ricky Atletico Venezuela Activo 97 / 96 40% 5 28.11.2027 -
Juan Morán Godoy Cruz Activo 108 / 121 40% 6 28.11.2027 -
Felipe Obradovich Ferro Carril Oeste Activo 107 / 117 40% 3 25.11.2027 -
Mauro Carrizo Atlético Tucumán Activo 101 / 106 40% 1 20.11.2027 -
Axel Tape Bayer Leverkusen Activo 130 / 132 40% 5 19.11.2027 -
Nazareno Roselli Defensa y Justicia Activo 112 / 121 40% 2 06.11.2027 -
Matías Gómez Granada Activo 117 / 134 40% 2 01.11.2027 -
Juan Giménez Celta Activo 120 / 116 40% 1 01.11.2027 -
Ángel Aguayo Sol de America Activo 95 / 101 40% 3 31.10.2027 -
Luis Otávio Colorado Rapids Activo 110 / 114 40% 1 21.10.2027 -
Josh King Chelsea Activo 145 / 158 40% 1 21.10.2027 -
Sebastián Ramírez Jaguares Activo 107 / 109 40% 4 19.10.2027 -
Archie Gray Derby County Activo 150 / 149 40% 3 17.10.2027 -
Camilo Rey Domenech Boca Juniors Activo 119 / 118 40% 2 15.10.2027 -
Teo Rodríguez Pagano River Plate Activo 116 / 120 40% 1 04.10.2027 -
Gabriel Moscardo Paris Saint-Germain Activo 131 / 138 40% 1 06.09.2027 -
Yusi Alavés Activo 133 / 133 40% 1 06.09.2027 -
Santiago Simón Toluca Perdido 123 / 119 93% 1 23.08.2027 Aprobar
Luca Langoni Colorado Rapids Activo 134 / 129 40% 1 23.08.2027 -
Cheikh Sabaly Vancouver Whitecaps Activo 127 / 126 40% 1 23.08.2027 -
Luka Jović AEK Activo 144 / 149 40% 1 23.08.2027 -
Uriel Antuna Zaragoza Perdido 136 / 138 40% 1 02.08.2027 -
Tani Oluwaseyi Villarreal Perdido 147 / 150 40% 1 02.08.2027 -
Hugo Duro Valencia Perdido 145 / 149 40% 1 02.08.2027 -
Hany Mukhtar Spezia Activo 138 / 146 40% 7 13.07.2027 -
Álex Forés Burgos Activo 135 / 140 40% 1 13.07.2027 -
Jon Morcillo Almería Activo 140 / 137 40% 2 12.07.2027 -
Toni Martínez Alavés Activo 141 / 131 40% 2 12.07.2027 -
Karl Etta Eyong Levante Activo 147 / 141 40% 1 12.07.2027 -
Oli McBurnie Hull City Activo 141 / 142 40% 12 06.07.2027 -
Yousef Salech Cardiff City Activo 130 / 131 40% 13 06.07.2027 -
Juninho Pumas UNAM Activo 130 / 125 40% 1 06.07.2027 Más información
Roger Brugué Levante Activo 131 / 128 40% 1 30.06.2027 -
Jon Bautista Eibar Activo 130 / 121 40% 1 30.06.2027 -
Urko González Espanyol Activo 140 / 145 40% 1 28.06.2027 -
Iván Martín Racing Santander Activo 145 / 149 40% 1 28.06.2027 -
Roberto López Leganés Activo 133 / 137 40% 1 28.06.2027 -
Tom Cannon Sheffield United Activo 129 / 123 40% 11 24.06.2027 -
Callum O'Hare Sheffield United Activo 133 / 138 40% 6 24.06.2027 -
Dominic Calvert-Lewin Leeds United Activo 145 / 148 40% 3 21.06.2027 -
Bertrand Traoré Sunderland Activo 135 / 133 40% 6 14.06.2027 -
Bitello SC Freiburg Activo 135 / 135 68% 1 01.06.2027 Aprobar
Ozziel Herrera Tigres Activo 134 / 130 40% 21 31.05.2027 -
Dany Mota Monza Activo 132 / 128 40% 1 31.05.2027 -
Aune Heggebø West Bromwich Albion Activo 131 / 123 40% 12 28.05.2027 -
Juninho Pumas UNAM Perdido 130 / 131 40% 7 28.05.2027 Más información
Soufiane Rahimi Guadalajara Activo 140 / 135 40% 13 27.05.2027 -
Hwang Hee-Chan Wolverhampton Activo 132 / 128 40% 5 26.05.2027 -
Ilyas Ansah Hull City Activo 134 / 142 40% 10 25.05.2027 -
Robert Mizo Ashanti Gold Activo 107 / 108 40% 2 25.05.2027 -
Mathias Jørgensen Blackburn Rovers Activo 122 / 123 40% 2 25.05.2027 -
Adam Idah Swansea City Activo 124 / 129 40% 1 25.05.2027 -
Richard Koné Queens Park Rangers Activo 124 / 120 40% 6 24.05.2027 -
Bojan Radulović Huddersfield Town Activo 116 / 121 40% 1 24.05.2027 -
Lorent Tolaj Plymouth Argyle Activo 121 / 122 40% 2 23.05.2027 -
Christian Saydee Wigan Athletic Activo 114 / 105 40% 2 23.05.2027 -
Lewis Morgan SuperSport United Activo 127 / 123 40% 8 22.05.2027 -
Luis Vázquez Birmingham Activo 132 / 136 40% 9 22.05.2027 -
André Silva Tondela Activo 131 / 127 40% 3 22.05.2027 -
Malik Mothersille Stockport County Activo 116 / 107 40% 1 21.05.2027 -
Petar Musa Adana Demirspor Activo 140 / 136 40% 13 18.05.2027 -
Iwan Morgan Grimsby Town Activo 110 / 121 40% 1 10.05.2027 -
Keinan Davis Udinese Activo 136 / 137 40% 3 07.05.2027 -
Hugo Cuypers Monterrey Activo 132 / 121 40% 9 06.05.2027 -
Lee Bonis Chesterfield Activo 106 / 108 40% 2 04.05.2027 -
Zian Flemming Ipswich Town Activo 130 / 126 40% 7 02.05.2027 -
Sascha Britschgi Padova Activo 122 / 130 40% 1 02.05.2027 -
Mees Rijks Bristol Rovers Activo 116 / 112 40% 1 02.05.2027 -
Ekain Orobengoa Real Sociedad Activo 99 / 98 40% 1 30.04.2027 -
Dom Ballard Leyton Orient Activo 124 / 120 40% 3 29.04.2027 -
Dylan Lawlor Cardiff City Activo 114 / 123 40% 1 27.04.2027 -
Keagan Tau Ajax Cape Town Activo 96 / 108 40% 1 27.04.2027 -
Marezi Portsmouth Activo 118 / 116 40% 2 25.04.2027 -
Rhian Brewster Oxford United Activo 118 / 126 40% 1 25.04.2027 -
Che Adams Torino Activo 144 / 136 40% 2 21.04.2027 -
Jayden Wareham Barnet Activo 105 / 96 40% 1 16.04.2027 -
Razvan Balasa Crvena Zvezda Activo 150 / 145 40% 9 14.04.2027 -
Kerem Aktürkoğlu Fenerbahce Activo 141 / 142 40% 3 11.04.2027 -
Job Ochieng Real Sociedad Activo 107 / 114 40% 2 10.04.2027 -
Tyrese Campbell Sheffield United Activo 131 / 133 40% 3 03.04.2027 -
Evidence Makgopa Orlando Pirates Activo 115 / 120 40% 2 02.04.2027 -
José Pachuca Puebla Activo 107 / 115 40% 2 02.04.2027 -
Ernie Weaver AFC Wimbledon Activo 110 / 122 40% 1 02.04.2027 -
Mohamed-Ali Cho Hull City Activo 136 / 129 40% 5 31.03.2027 -
Niall Ennis Blackpool Activo 113 / 113 40% 1 30.03.2027 -
Valentin Atangana Al-Ahli Activo 126 / 128 40% 1 25.03.2027 -
Guilherme Ankaragucu Activo 128 / 127 40% 2 24.03.2027 -
Joe Gelhardt Hull City Activo 135 / 132 40% 1 24.03.2027 -
Bamba Dieng Crvena Zvezda Activo 128 / 128 40% 4 17.03.2027 -
Cheveyo Tsawa Club Brugge Activo 118 / 131 40% 1 15.03.2027 -
Cemran Dansin Orlando Pirates Activo 113 / 107 40% 1 15.03.2027 -
Joaquin Seys Club Brugge Activo 128 / 137 40% 1 15.03.2027 -
Tiago Freitas Benfica Activo 106 / 113 40% 1 13.03.2027 -
Christos Mouzakitis Hull City Activo 134 / 134 40% 1 13.03.2027 -
Yusuke Matsuo Esteghlal Activo 131 / 132 40% 2 10.03.2027 -
Mandla Mahlangu Ajax Cape Town Activo 105 / 109 40% 1 09.03.2027 -
Nicolò Tresoldi Club Brugge Activo 136 / 143 40% 13 07.03.2027 -
Hlompho Lorch Ajax Cape Town Activo 98 / 103 40% 1 07.03.2027 -
Martim Cunha Porto Activo 103 / 99 40% 1 07.03.2027 -
Adnan Courtois KV Oostende Activo 141 / 126 40% 12 05.03.2027 -
Adriano Bertaccini Anderlecht Activo 126 / 130 40% 4 01.03.2027 -
Shahriar Dejagah Tractor Activo 122 / 124 40% 2 28.02.2027 -
Karim Karimi Siah Jamegan Activo 108 / 105 40% 1 26.02.2027 -
Toni Fruk KV Mechelen Activo 131 / 140 40% 4 20.02.2027 -
Will Lankshear Middlesbrough Activo 129 / 121 40% 1 19.02.2027 -
Etiosa Ighodaro Kaizer Chiefs Activo 112 / 102 40% 2 16.02.2027 -
Efraín Álvarez Guadalajara Activo 129 / 128 40% 4 13.02.2027 -
Lassina Traoré Shakhtar Activo 124 / 110 40% 2 13.02.2027 -
Róbert Boženík Newcastle United Activo 128 / 131 40% 1 12.02.2027 -
Adonis Frías Atlas Activo 132 / 124 40% 3 08.02.2027 -
Richard Ledezma Guadalajara Activo 133 / 129 40% 2 08.02.2027 -
Jesús Angulo Tigres Activo 138 / 139 40% 1 07.02.2027 -
Christos Zafeiris Tigres Activo 142 / 139 40% 1 07.02.2027 -
Nicolás Fernández Mercau Shakhtar Activo 140 / 129 67% 2 06.02.2027 Aprobar
Shea Charles Southampton Activo 131 / 130 40% 1 05.02.2027 -
Andrew Robertson Tottenham Activo 156 / 153 40% 1 05.02.2027 -
Harry Clarke Preston Activo 127 / 135 40% 1 04.02.2027 -
Luis Romo Guadalajara Activo 138 / 141 40% 1 04.02.2027 -
Leon Goretzka Aston Villa Activo 159 / 149 40% 1 03.02.2027 -
Ross McCrorie Bristol City Activo 122 / 120 40% 1 03.02.2027 -
Adalberto Carrasquilla Pumas UNAM Activo 123 / 121 40% 1 01.02.2027 -
Rodrigo Echeverría Leon Activo 126 / 135 40% 1 01.02.2027 -
Luís Esteves Atlas Activo 124 / 124 83% 1 18.01.2027 Aprobar
Themba Ngcobo SuperSport United Activo 118 / 114 40% 3 04.01.2027 -
Federico Pereira Estudiantes Activo 135 / 135 68% 1 01.01.2027 Aprobar
Konstantin Tyukavin Inter Activo 132 / 133 66% 1 01.01.2027 Aprobar
Marcel Ruiz RC Lens Activo 140 / 141 66% 1 01.01.2027 Aprobar
Moussa Dembélé CR Belouizdad Activo 139 / 138 40% 1 28.12.2026 -
Ruben van Bommel Ferencvaros Activo 138 / 125 40% 4 27.12.2026 -
Manfred Ugalde Spartak Moscow Activo 135 / 126 40% 8 26.12.2026 -
Bento Al-Nassr Activo 129 / 141 40% 2 17.12.2026 -
Felipe Parra Envigado Activo 126 / 131 40% 1 17.12.2026 -
Ángel Correa River Plate Perdido 141 / 144 40% 4 13.12.2026 -
Eddie Nketiah Crystal Palace Activo 145 / 137 40% 1 12.12.2026 -
Tomás González Piast Activo 119 / 116 40% 3 08.12.2026 -
Nicolás Cordero Aldosivi Activo 123 / 118 40% 2 05.12.2026 -
Diego Valdés Vélez Activo 126 / 136 40% 4 05.12.2026 -
Enzo Avaro Odd Activo 113 / 113 40% 2 02.12.2026 -
Alexis Cuello San Lorenzo Activo 122 / 122 40% 2 02.12.2026 -
Mauro Silveira Junior Activo 118 / 118 40% 2 01.12.2026 -
Freddy Gomez La Equidad Activo 137 / 139 40% 2 30.11.2026 -
Esteban Glellel Quilmes Activo 123 / 110 40% 1 26.11.2026 -
Erick Reyes Toluca Activo 143 / 144 40% 1 25.11.2026 -
Kostantis Tzolakis Hull City Activo 134 / 148 40% 1 19.11.2026 -
Federico Varese Racing Activo 107 / 107 40% 1 19.11.2026 -
Alan Velasco Boca Juniors Activo 134 / 133 40% 5 15.11.2026 -
Rafael Santos Borré Torino Activo 130 / 121 40% 2 14.11.2026 -
Diego Rossi Monterrey Activo 134 / 140 40% 9 13.11.2026 -
Bradley Mabunda SuperSport United Activo 108 / 120 40% 1 13.11.2026 -
Sebastián Villa Boca Juniors Activo 126 / 121 40% 5 08.11.2026 -
Michael Cooper Sheffield United Activo 133 / 122 40% 1 08.11.2026 -
Tomás Durso Atlético Tucumán Activo 124 / 112 40% 1 08.11.2026 -
Kévin Denkey FC Cincinnati Activo 123 / 133 40% 6 05.11.2026 -
Breel Embolo Atlanta United FC Activo 142 / 141 40% 5 03.11.2026 -
Paulo Dybala AS Roma Activo 154 / 157 40% 2 01.11.2026 -
Wessam Abou Ali Columbus Crew Activo 126 / 133 40% 5 23.10.2026 -
Agustín Ruberto River Plate Activo 117 / 127 40% 2 22.10.2026 -
Sebastián Cocimano Nueva Chicago Activo 116 / 110 40% 1 22.10.2026 -
Ramiro Ruiz Rodríguez Atlético Tucumán Activo 129 / 119 40% 1 22.10.2026 -
Gabriel Jesus Barcelona Activo 152 / 151 40% 5 20.10.2026 -
Nicolás Fernández Sassuolo Activo 134 / 120 40% 1 17.10.2026 -
Leo Ceara Kashima Antlers Activo 132 / 137 40% 3 16.10.2026 -
Alexander Díaz Deportivo Riestra Activo 123 / 125 40% 1 13.10.2026 -
Luca Martínez Dupuy Godoy Cruz Activo 121 / 121 40% 1 10.10.2026 -
Joaquín Correa Estudiantes Activo 137 / 124 40% 1 07.10.2026 -
Jordan Morris Seattle Sounders Activo 132 / 130 40% 4 02.10.2026 -
Dejan Joveljić Seattle Sounders Activo 127 / 126 40% 4 28.09.2026 -
Ezequiel Almirón Estudiantes Activo 112 / 118 40% 1 27.09.2026 -
Misael Sosa Godoy Cruz Activo 107 / 119 40% 1 22.09.2026 -
Juan Rocca Gimnasia y Tiro Activo 109 / 110 40% 1 22.09.2026 -
Erison Kawasaki Frontale Activo 124 / 126 40% 1 19.09.2026 -
Myrto Uzuni Austin FC Activo 135 / 128 40% 1 19.09.2026 -
Barış Alper Yılmaz Galatasaray Activo 154 / 138 40% 1 18.09.2026 -
Kein Sato FC Tokyo Activo 132 / 126 40% 1 16.09.2026 -
Josh Sargent Toronto FC Activo 125 / 131 40% 2 13.09.2026 -
Agustín Venezia Iquique Activo 107 / 105 40% 1 13.09.2026 -
Pep Biel Charlotte Football Club Activo 131 / 126 40% 1 09.09.2026 -
Harold Preciado Activo 123 / 123 40% 2 07.09.2026 -
Brayan Hurtado Antofagasta Activo 96 / 100 40% 1 07.09.2026 -
Martín Ojeda Orlando City Activo 137 / 129 40% 2 01.09.2026 -
Raúl Rangel Sporting CP Activo 132 / 132 66% 1 24.08.2026 Aprobar
Federico Girotti Alianza Lima Activo 125 / 122 40% 1 07.08.2026 -
Rafael Navarro St. Louis CITY SC Activo 129 / 129 40% 1 06.08.2026 -
Kelvin Yeboah Minnesota United FC Activo 129 / 124 40% 1 05.08.2026 -
Carlos Moreno Pachuca Activo 134 / 123 40% 1 02.08.2026 -
Sebastián Cáceres Celta Activo 132 / 126 40% 1 02.08.2026 -